sensor_id;sensor_type;location;lat;lon;timestamp;temperature;humidity
74537;SHT31;63013;51.104;-115.370;2023-06-22T00:01:19;18.92;38.60
74537;SHT31;63013;51.104;-115.370;2023-06-22T00:03:48;18.94;38.67
74537;SHT31;63013;51.104;-115.370;2023-06-22T00:06:15;18.93;38.24
74537;SHT31;63013;51.104;-115.370;2023-06-22T00:08:42;18.92;38.71
74537;SHT31;63013;51.104;-115.370;2023-06-22T00:11:09;18.93;39.29
74537;SHT31;63013;51.104;-115.370;2023-06-22T00:13:37;18.93;39.89
74537;SHT31;63013;51.104;-115.370;2023-06-22T00:16:04;18.89;40.16
74537;SHT31;63013;51.104;-115.370;2023-06-22T00:18:31;18.85;40.60
74537;SHT31;63013;51.104;-115.370;2023-06-22T00:20:58;18.87;41.49
74537;SHT31;63013;51.104;-115.370;2023-06-22T00:23:26;18.90;41.89
74537;SHT31;63013;51.104;-115.370;2023-06-22T00:25:53;18.91;42.27
74537;SHT31;63013;51.104;-115.370;2023-06-22T00:28:20;18.89;42.70
74537;SHT31;63013;51.104;-115.370;2023-06-22T00:30:48;18.88;42.82
74537;SHT31;63013;51.104;-115.370;2023-06-22T00:33:15;18.89;42.88
74537;SHT31;63013;51.104;-115.370;2023-06-22T00:35:42;18.92;42.84
74537;SHT31;63013;51.104;-115.370;2023-06-22T00:38:10;18.92;42.60
74537;SHT31;63013;51.104;-115.370;2023-06-22T00:40:37;18.89;43.03
74537;SHT31;63013;51.104;-115.370;2023-06-22T00:43:05;18.91;43.18
74537;SHT31;63013;51.104;-115.370;2023-06-22T00:45:32;18.91;43.53
74537;SHT31;63013;51.104;-115.370;2023-06-22T00:48:00;18.95;43.01
74537;SHT31;63013;51.104;-115.370;2023-06-22T00:50:29;18.94;43.15
74537;SHT31;63013;51.104;-115.370;2023-06-22T00:53:10;18.92;43.56
74537;SHT31;63013;51.104;-115.370;2023-06-22T00:55:41;18.88;43.46
74537;SHT31;63013;51.104;-115.370;2023-06-22T00:58:09;18.82;42.61
74537;SHT31;63013;51.104;-115.370;2023-06-22T01:00:38;18.76;42.23
74537;SHT31;63013;51.104;-115.370;2023-06-22T01:03:06;18.70;41.42
74537;SHT31;63013;51.104;-115.370;2023-06-22T01:05:34;18.64;41.93
74537;SHT31;63013;51.104;-115.370;2023-06-22T01:10:59;18.63;42.25
74537;SHT31;63013;51.104;-115.370;2023-06-22T01:16:26;18.71;42.75
74537;SHT31;63013;51.104;-115.370;2023-06-22T01:18:57;18.77;42.95
74537;SHT31;63013;51.104;-115.370;2023-06-22T01:21:55;18.85;42.91
74537;SHT31;63013;51.104;-115.370;2023-06-22T01:27:04;18.82;42.49
74537;SHT31;63013;51.104;-115.370;2023-06-22T01:30:11;18.76;42.45
74537;SHT31;63013;51.104;-115.370;2023-06-22T01:32:42;18.75;42.91
74537;SHT31;63013;51.104;-115.370;2023-06-22T01:35:10;18.72;42.51
74537;SHT31;63013;51.104;-115.370;2023-06-22T01:37:38;18.69;42.29
74537;SHT31;63013;51.104;-115.370;2023-06-22T01:40:06;18.68;42.56
74537;SHT31;63013;51.104;-115.370;2023-06-22T01:42:34;18.65;42.47
74537;SHT31;63013;51.104;-115.370;2023-06-22T01:45:03;18.62;42.47
74537;SHT31;63013;51.104;-115.370;2023-06-22T01:47:32;18.60;42.54
74537;SHT31;63013;51.104;-115.370;2023-06-22T01:50:00;18.56;42.62
74537;SHT31;63013;51.104;-115.370;2023-06-22T01:52:28;18.54;42.67
74537;SHT31;63013;51.104;-115.370;2023-06-22T01:54:55;18.52;42.72
74537;SHT31;63013;51.104;-115.370;2023-06-22T01:57:23;18.50;42.93
74537;SHT31;63013;51.104;-115.370;2023-06-22T02:00:33;18.49;42.90
74537;SHT31;63013;51.104;-115.370;2023-06-22T02:03:03;18.48;42.99
74537;SHT31;63013;51.104;-115.370;2023-06-22T02:05:49;18.47;43.05
74537;SHT31;63013;51.104;-115.370;2023-06-22T02:08:29;18.51;43.49
74537;SHT31;63013;51.104;-115.370;2023-06-22T02:11:08;18.59;43.77
74537;SHT31;63013;51.104;-115.370;2023-06-22T02:13:37;18.67;43.78
74537;SHT31;63013;51.104;-115.370;2023-06-22T02:16:09;18.76;43.80
74537;SHT31;63013;51.104;-115.370;2023-06-22T02:18:38;18.83;43.72
74537;SHT31;63013;51.104;-115.370;2023-06-22T02:21:20;18.91;43.70
74537;SHT31;63013;51.104;-115.370;2023-06-22T02:23:49;18.98;43.71
74537;SHT31;63013;51.104;-115.370;2023-06-22T02:26:17;19.03;43.71
74537;SHT31;63013;51.104;-115.370;2023-06-22T02:28:44;19.08;43.70
74537;SHT31;63013;51.104;-115.370;2023-06-22T02:31:11;19.12;43.69
74537;SHT31;63013;51.104;-115.370;2023-06-22T02:33:38;19.20;43.56
74537;SHT31;63013;51.104;-115.370;2023-06-22T02:36:06;19.24;43.39
74537;SHT31;63013;51.104;-115.370;2023-06-22T02:38:34;19.31;43.23
74537;SHT31;63013;51.104;-115.370;2023-06-22T02:41:02;19.36;43.12
74537;SHT31;63013;51.104;-115.370;2023-06-22T02:43:29;19.41;43.05
74537;SHT31;63013;51.104;-115.370;2023-06-22T02:45:56;19.46;42.95
74537;SHT31;63013;51.104;-115.370;2023-06-22T02:48:23;19.50;42.89
74537;SHT31;63013;51.104;-115.370;2023-06-22T02:50:50;19.53;42.89
74537;SHT31;63013;51.104;-115.370;2023-06-22T02:53:17;19.56;42.89
74537;SHT31;63013;51.104;-115.370;2023-06-22T02:55:45;19.60;42.93
74537;SHT31;63013;51.104;-115.370;2023-06-22T02:58:12;19.61;42.99
74537;SHT31;63013;51.104;-115.370;2023-06-22T03:00:39;19.63;43.02
74537;SHT31;63013;51.104;-115.370;2023-06-22T03:03:06;19.66;43.03
74537;SHT31;63013;51.104;-115.370;2023-06-22T03:05:33;19.67;43.06
74537;SHT31;63013;51.104;-115.370;2023-06-22T03:08:00;19.69;43.10
74537;SHT31;63013;51.104;-115.370;2023-06-22T03:10:27;19.71;43.14
74537;SHT31;63013;51.104;-115.370;2023-06-22T03:12:56;19.73;43.21
74537;SHT31;63013;51.104;-115.370;2023-06-22T03:15:23;19.74;43.21
74537;SHT31;63013;51.104;-115.370;2023-06-22T03:17:51;19.76;43.24
74537;SHT31;63013;51.104;-115.370;2023-06-22T03:20:18;19.77;43.28
74537;SHT31;63013;51.104;-115.370;2023-06-22T03:22:45;19.78;43.33
74537;SHT31;63013;51.104;-115.370;2023-06-22T03:25:14;19.80;43.37
74537;SHT31;63013;51.104;-115.370;2023-06-22T03:27:41;19.80;43.40
74537;SHT31;63013;51.104;-115.370;2023-06-22T03:30:13;19.81;43.37
74537;SHT31;63013;51.104;-115.370;2023-06-22T03:32:41;19.81;43.45
74537;SHT31;63013;51.104;-115.370;2023-06-22T03:35:09;19.83;43.49
74537;SHT31;63013;51.104;-115.370;2023-06-22T03:37:38;19.83;43.47
74537;SHT31;63013;51.104;-115.370;2023-06-22T03:40:06;19.82;43.40
74537;SHT31;63013;51.104;-115.370;2023-06-22T03:42:34;19.85;43.46
74537;SHT31;63013;51.104;-115.370;2023-06-22T03:45:02;19.86;43.50
74537;SHT31;63013;51.104;-115.370;2023-06-22T03:47:31;19.87;43.48
74537;SHT31;63013;51.104;-115.370;2023-06-22T03:49:59;19.87;43.47
74537;SHT31;63013;51.104;-115.370;2023-06-22T03:52:29;19.88;43.50
74537;SHT31;63013;51.104;-115.370;2023-06-22T03:54:56;19.88;43.48
74537;SHT31;63013;51.104;-115.370;2023-06-22T03:57:23;19.87;43.44
74537;SHT31;63013;51.104;-115.370;2023-06-22T03:59:50;19.86;43.48
74537;SHT31;63013;51.104;-115.370;2023-06-22T04:02:17;19.87;43.49
74537;SHT31;63013;51.104;-115.370;2023-06-22T04:04:44;19.87;43.48
74537;SHT31;63013;51.104;-115.370;2023-06-22T04:07:11;19.87;43.51
74537;SHT31;63013;51.104;-115.370;2023-06-22T04:09:38;19.87;43.47
74537;SHT31;63013;51.104;-115.370;2023-06-22T04:12:05;19.86;43.47
74537;SHT31;63013;51.104;-115.370;2023-06-22T04:14:32;19.87;43.38
74537;SHT31;63013;51.104;-115.370;2023-06-22T04:17:00;19.88;43.41
74537;SHT31;63013;51.104;-115.370;2023-06-22T04:19:27;19.88;43.42
74537;SHT31;63013;51.104;-115.370;2023-06-22T04:21:54;19.90;43.36
74537;SHT31;63013;51.104;-115.370;2023-06-22T04:24:20;19.91;43.53
74537;SHT31;63013;51.104;-115.370;2023-06-22T04:26:48;19.91;43.51
74537;SHT31;63013;51.104;-115.370;2023-06-22T04:29:20;19.93;43.57
74537;SHT31;63013;51.104;-115.370;2023-06-22T04:31:54;19.94;44.78
74537;SHT31;63013;51.104;-115.370;2023-06-22T04:34:24;19.95;44.70
74537;SHT31;63013;51.104;-115.370;2023-06-22T04:36:54;19.97;44.59
74537;SHT31;63013;51.104;-115.370;2023-06-22T04:39:21;19.99;44.50
74537;SHT31;63013;51.104;-115.370;2023-06-22T04:41:49;20.00;44.47
74537;SHT31;63013;51.104;-115.370;2023-06-22T04:44:17;20.01;44.49
74537;SHT31;63013;51.104;-115.370;2023-06-22T04:46:51;20.02;44.47
74537;SHT31;63013;51.104;-115.370;2023-06-22T04:49:29;20.03;44.51
74537;SHT31;63013;51.104;-115.370;2023-06-22T04:52:05;20.03;44.63
74537;SHT31;63013;51.104;-115.370;2023-06-22T04:54:35;20.04;44.66
74537;SHT31;63013;51.104;-115.370;2023-06-22T04:57:06;20.03;44.77
74537;SHT31;63013;51.104;-115.370;2023-06-22T04:59:37;20.04;44.78
74537;SHT31;63013;51.104;-115.370;2023-06-22T05:02:07;20.03;44.75
74537;SHT31;63013;51.104;-115.370;2023-06-22T05:04:35;20.02;44.78
74537;SHT31;63013;51.104;-115.370;2023-06-22T05:07:04;20.01;44.66
74537;SHT31;63013;51.104;-115.370;2023-06-22T05:09:31;20.01;44.59
74537;SHT31;63013;51.104;-115.370;2023-06-22T05:11:59;19.98;44.54
74537;SHT31;63013;51.104;-115.370;2023-06-22T05:14:28;19.97;44.43
74537;SHT31;63013;51.104;-115.370;2023-06-22T05:16:55;19.97;44.42
74537;SHT31;63013;51.104;-115.370;2023-06-22T05:19:29;19.96;44.43
74537;SHT31;63013;51.104;-115.370;2023-06-22T05:21:59;19.93;44.42
74537;SHT31;63013;51.104;-115.370;2023-06-22T05:24:25;19.93;44.42
74537;SHT31;63013;51.104;-115.370;2023-06-22T05:26:52;19.92;44.43
74537;SHT31;63013;51.104;-115.370;2023-06-22T05:29:19;19.90;44.41
74537;SHT31;63013;51.104;-115.370;2023-06-22T05:31:47;19.89;44.38
74537;SHT31;63013;51.104;-115.370;2023-06-22T05:34:15;19.88;44.42
74537;SHT31;63013;51.104;-115.370;2023-06-22T05:36:42;19.85;44.46
74537;SHT31;63013;51.104;-115.370;2023-06-22T05:39:13;19.84;44.42
74537;SHT31;63013;51.104;-115.370;2023-06-22T05:41:41;19.83;44.47
74537;SHT31;63013;51.104;-115.370;2023-06-22T05:44:09;19.81;44.46
74537;SHT31;63013;51.104;-115.370;2023-06-22T05:46:36;19.79;44.41
74537;SHT31;63013;51.104;-115.370;2023-06-22T05:49:11;19.78;44.40
74537;SHT31;63013;51.104;-115.370;2023-06-22T05:51:39;19.76;44.36
74537;SHT31;63013;51.104;-115.370;2023-06-22T05:54:06;19.75;44.29
74537;SHT31;63013;51.104;-115.370;2023-06-22T05:56:34;19.74;44.28
74537;SHT31;63013;51.104;-115.370;2023-06-22T05:59:01;19.73;44.32
74537;SHT31;63013;51.104;-115.370;2023-06-22T06:01:29;19.71;44.31
74537;SHT31;63013;51.104;-115.370;2023-06-22T06:04:02;19.69;44.24
74537;SHT31;63013;51.104;-115.370;2023-06-22T06:06:35;19.69;44.22
74537;SHT31;63013;51.104;-115.370;2023-06-22T06:09:05;19.67;44.20
74537;SHT31;63013;51.104;-115.370;2023-06-22T06:11:33;19.65;44.17
74537;SHT31;63013;51.104;-115.370;2023-06-22T06:14:00;19.63;44.13
74537;SHT31;63013;51.104;-115.370;2023-06-22T06:16:26;19.62;44.19
74537;SHT31;63013;51.104;-115.370;2023-06-22T06:18:54;19.61;44.14
74537;SHT31;63013;51.104;-115.370;2023-06-22T06:21:21;19.59;44.15
74537;SHT31;63013;51.104;-115.370;2023-06-22T06:23:49;19.58;44.08
74537;SHT31;63013;51.104;-115.370;2023-06-22T06:26:16;19.56;44.10
74537;SHT31;63013;51.104;-115.370;2023-06-22T06:28:43;19.55;44.10
74537;SHT31;63013;51.104;-115.370;2023-06-22T06:31:11;19.54;44.08
74537;SHT31;63013;51.104;-115.370;2023-06-22T06:33:42;19.52;44.07
74537;SHT31;63013;51.104;-115.370;2023-06-22T06:36:09;19.51;44.07
74537;SHT31;63013;51.104;-115.370;2023-06-22T06:38:36;19.49;44.07
74537;SHT31;63013;51.104;-115.370;2023-06-22T06:41:02;19.48;44.03
74537;SHT31;63013;51.104;-115.370;2023-06-22T06:43:30;19.47;44.06
74537;SHT31;63013;51.104;-115.370;2023-06-22T06:45:57;19.45;44.07
74537;SHT31;63013;51.104;-115.370;2023-06-22T06:48:24;19.44;44.06
74537;SHT31;63013;51.104;-115.370;2023-06-22T06:50:51;19.42;44.01
74537;SHT31;63013;51.104;-115.370;2023-06-22T06:53:21;19.41;44.03
74537;SHT31;63013;51.104;-115.370;2023-06-22T06:55:48;19.39;43.99
74537;SHT31;63013;51.104;-115.370;2023-06-22T06:58:15;19.38;44.03
74537;SHT31;63013;51.104;-115.370;2023-06-22T07:00:42;19.37;44.03
74537;SHT31;63013;51.104;-115.370;2023-06-22T07:03:10;19.35;44.11
74537;SHT31;63013;51.104;-115.370;2023-06-22T07:05:37;19.34;44.05
74537;SHT31;63013;51.104;-115.370;2023-06-22T07:08:04;19.32;43.99
74537;SHT31;63013;51.104;-115.370;2023-06-22T07:10:31;19.30;44.05
74537;SHT31;63013;51.104;-115.370;2023-06-22T07:12:58;19.29;44.02
74537;SHT31;63013;51.104;-115.370;2023-06-22T07:15:25;19.28;43.96
74537;SHT31;63013;51.104;-115.370;2023-06-22T07:17:52;19.28;44.22
74537;SHT31;63013;51.104;-115.370;2023-06-22T07:20:19;19.27;44.39
74537;SHT31;63013;51.104;-115.370;2023-06-22T07:22:46;19.27;44.47
74537;SHT31;63013;51.104;-115.370;2023-06-22T07:25:14;19.27;44.61
74537;SHT31;63013;51.104;-115.370;2023-06-22T07:27:46;19.27;44.70
74537;SHT31;63013;51.104;-115.370;2023-06-22T07:30:24;19.27;44.76
74537;SHT31;63013;51.104;-115.370;2023-06-22T07:32:52;19.27;44.75
74537;SHT31;63013;51.104;-115.370;2023-06-22T07:35:19;19.27;44.77
74537;SHT31;63013;51.104;-115.370;2023-06-22T07:37:46;19.27;44.74
74537;SHT31;63013;51.104;-115.370;2023-06-22T07:40:13;19.27;44.80
74537;SHT31;63013;51.104;-115.370;2023-06-22T07:42:40;19.26;44.81
74537;SHT31;63013;51.104;-115.370;2023-06-22T07:45:07;19.27;44.78
74537;SHT31;63013;51.104;-115.370;2023-06-22T07:47:35;19.27;44.77
74537;SHT31;63013;51.104;-115.370;2023-06-22T07:50:02;19.26;44.74
74537;SHT31;63013;51.104;-115.370;2023-06-22T07:52:30;19.25;44.70
74537;SHT31;63013;51.104;-115.370;2023-06-22T07:54:58;19.25;44.68
74537;SHT31;63013;51.104;-115.370;2023-06-22T07:57:25;19.24;44.41
74537;SHT31;63013;51.104;-115.370;2023-06-22T07:59:59;19.23;44.34
74537;SHT31;63013;51.104;-115.370;2023-06-22T08:02:29;19.22;44.29
74537;SHT31;63013;51.104;-115.370;2023-06-22T08:04:56;19.20;44.25
74537;SHT31;63013;51.104;-115.370;2023-06-22T08:07:23;19.18;44.23
74537;SHT31;63013;51.104;-115.370;2023-06-22T08:09:50;19.17;44.14
74537;SHT31;63013;51.104;-115.370;2023-06-22T08:12:17;19.16;44.07
74537;SHT31;63013;51.104;-115.370;2023-06-22T08:14:45;19.13;44.10
74537;SHT31;63013;51.104;-115.370;2023-06-22T08:17:12;19.11;44.14
74537;SHT31;63013;51.104;-115.370;2023-06-22T08:19:39;19.10;44.08
74537;SHT31;63013;51.104;-115.370;2023-06-22T08:22:06;19.09;44.05
74537;SHT31;63013;51.104;-115.370;2023-06-22T08:24:33;19.07;43.99
74537;SHT31;63013;51.104;-115.370;2023-06-22T08:27:00;19.06;43.99
74537;SHT31;63013;51.104;-115.370;2023-06-22T08:29:27;19.04;43.96
74537;SHT31;63013;51.104;-115.370;2023-06-22T08:31:54;19.02;43.98
74537;SHT31;63013;51.104;-115.370;2023-06-22T08:34:21;19.01;43.93
74537;SHT31;63013;51.104;-115.370;2023-06-22T08:36:48;18.98;43.94
74537;SHT31;63013;51.104;-115.370;2023-06-22T08:39:17;18.97;43.93
74537;SHT31;63013;51.104;-115.370;2023-06-22T08:41:48;18.95;43.96
74537;SHT31;63013;51.104;-115.370;2023-06-22T08:44:18;18.94;43.93
74537;SHT31;63013;51.104;-115.370;2023-06-22T08:46:45;18.92;43.93
74537;SHT31;63013;51.104;-115.370;2023-06-22T08:49:12;18.88;43.86
74537;SHT31;63013;51.104;-115.370;2023-06-22T08:51:40;18.88;43.88
74537;SHT31;63013;51.104;-115.370;2023-06-22T08:54:07;18.86;43.87
74537;SHT31;63013;51.104;-115.370;2023-06-22T08:56:34;18.85;43.83
74537;SHT31;63013;51.104;-115.370;2023-06-22T08:59:01;18.83;43.79
74537;SHT31;63013;51.104;-115.370;2023-06-22T09:01:28;18.80;43.81
74537;SHT31;63013;51.104;-115.370;2023-06-22T09:03:55;18.78;43.81
74537;SHT31;63013;51.104;-115.370;2023-06-22T09:06:23;18.77;43.80
74537;SHT31;63013;51.104;-115.370;2023-06-22T09:08:51;18.76;43.85
74537;SHT31;63013;51.104;-115.370;2023-06-22T09:11:18;18.75;43.79
74537;SHT31;63013;51.104;-115.370;2023-06-22T09:13:46;18.73;43.82
74537;SHT31;63013;51.104;-115.370;2023-06-22T09:16:13;18.70;43.84
74537;SHT31;63013;51.104;-115.370;2023-06-22T09:18:40;18.70;43.81
74537;SHT31;63013;51.104;-115.370;2023-06-22T09:21:07;18.67;43.79
74537;SHT31;63013;51.104;-115.370;2023-06-22T09:23:34;18.66;43.77
74537;SHT31;63013;51.104;-115.370;2023-06-22T09:26:01;18.65;43.76
74537;SHT31;63013;51.104;-115.370;2023-06-22T09:28:29;18.64;43.68
74537;SHT31;63013;51.104;-115.370;2023-06-22T09:30:56;18.64;43.67
74537;SHT31;63013;51.104;-115.370;2023-06-22T09:33:25;18.61;43.61
74537;SHT31;63013;51.104;-115.370;2023-06-22T09:35:52;18.61;43.54
74537;SHT31;63013;51.104;-115.370;2023-06-22T09:38:19;18.60;43.62
74537;SHT31;63013;51.104;-115.370;2023-06-22T09:40:46;18.58;43.63
74537;SHT31;63013;51.104;-115.370;2023-06-22T09:43:13;18.57;43.68
74537;SHT31;63013;51.104;-115.370;2023-06-22T09:45:40;18.56;43.61
74537;SHT31;63013;51.104;-115.370;2023-06-22T09:48:08;18.55;43.60
74537;SHT31;63013;51.104;-115.370;2023-06-22T09:50:38;18.54;43.57
74537;SHT31;63013;51.104;-115.370;2023-06-22T09:53:04;18.53;43.54
74537;SHT31;63013;51.104;-115.370;2023-06-22T09:55:32;18.53;43.49
74537;SHT31;63013;51.104;-115.370;2023-06-22T09:57:58;18.51;43.47
74537;SHT31;63013;51.104;-115.370;2023-06-22T10:00:25;18.50;43.46
74537;SHT31;63013;51.104;-115.370;2023-06-22T10:02:52;18.50;43.37
74537;SHT31;63013;51.104;-115.370;2023-06-22T10:05:21;18.48;43.47
74537;SHT31;63013;51.104;-115.370;2023-06-22T10:07:48;18.48;43.44
74537;SHT31;63013;51.104;-115.370;2023-06-22T10:10:15;18.47;43.42
74537;SHT31;63013;51.104;-115.370;2023-06-22T10:12:45;18.46;43.58
74537;SHT31;63013;51.104;-115.370;2023-06-22T10:15:14;18.44;43.53
74537;SHT31;63013;51.104;-115.370;2023-06-22T10:17:42;18.44;43.53
74537;SHT31;63013;51.104;-115.370;2023-06-22T10:20:09;18.44;43.54
74537;SHT31;63013;51.104;-115.370;2023-06-22T10:22:40;18.42;43.59
74537;SHT31;63013;51.104;-115.370;2023-06-22T10:25:11;18.41;43.62
74537;SHT31;63013;51.104;-115.370;2023-06-22T10:27:39;18.41;43.64
74537;SHT31;63013;51.104;-115.370;2023-06-22T10:30:09;18.39;43.68
74537;SHT31;63013;51.104;-115.370;2023-06-22T10:32:41;18.37;43.68
74537;SHT31;63013;51.104;-115.370;2023-06-22T10:35:09;18.36;43.65
74537;SHT31;63013;51.104;-115.370;2023-06-22T10:37:38;18.35;43.67
74537;SHT31;63013;51.104;-115.370;2023-06-22T10:40:08;18.34;43.70
74537;SHT31;63013;51.104;-115.370;2023-06-22T10:42:36;18.33;43.70
74537;SHT31;63013;51.104;-115.370;2023-06-22T10:45:03;18.31;43.63
74537;SHT31;63013;51.104;-115.370;2023-06-22T10:47:31;18.30;43.69
74537;SHT31;63013;51.104;-115.370;2023-06-22T10:49:57;18.30;43.68
74537;SHT31;63013;51.104;-115.370;2023-06-22T10:52:24;18.28;43.65
74537;SHT31;63013;51.104;-115.370;2023-06-22T10:54:51;18.28;43.61
74537;SHT31;63013;51.104;-115.370;2023-06-22T10:57:19;18.26;43.68
74537;SHT31;63013;51.104;-115.370;2023-06-22T10:59:47;18.25;43.61
74537;SHT31;63013;51.104;-115.370;2023-06-22T11:02:14;18.24;43.60
74537;SHT31;63013;51.104;-115.370;2023-06-22T11:04:40;18.23;43.59
74537;SHT31;63013;51.104;-115.370;2023-06-22T11:07:08;18.21;43.60
74537;SHT31;63013;51.104;-115.370;2023-06-22T11:09:36;18.21;43.54
74537;SHT31;63013;51.104;-115.370;2023-06-22T11:12:05;18.19;43.55
74537;SHT31;63013;51.104;-115.370;2023-06-22T11:14:32;18.19;43.55
74537;SHT31;63013;51.104;-115.370;2023-06-22T11:17:00;18.17;43.52
74537;SHT31;63013;51.104;-115.370;2023-06-22T11:19:27;18.16;43.52
74537;SHT31;63013;51.104;-115.370;2023-06-22T11:21:54;18.16;43.43
74537;SHT31;63013;51.104;-115.370;2023-06-22T11:24:22;18.14;43.40
74537;SHT31;63013;51.104;-115.370;2023-06-22T11:26:49;18.13;43.43
74537;SHT31;63013;51.104;-115.370;2023-06-22T11:29:16;18.11;43.37
74537;SHT31;63013;51.104;-115.370;2023-06-22T11:31:43;18.10;43.32
74537;SHT31;63013;51.104;-115.370;2023-06-22T11:34:10;18.09;43.40
74537;SHT31;63013;51.104;-115.370;2023-06-22T11:36:37;18.08;43.35
74537;SHT31;63013;51.104;-115.370;2023-06-22T11:39:05;18.07;43.19
74537;SHT31;63013;51.104;-115.370;2023-06-22T11:41:35;18.05;43.63
74537;SHT31;63013;51.104;-115.370;2023-06-22T11:44:02;18.05;44.01
74537;SHT31;63013;51.104;-115.370;2023-06-22T11:46:29;18.05;44.12
74537;SHT31;63013;51.104;-115.370;2023-06-22T11:48:57;18.05;44.13
74537;SHT31;63013;51.104;-115.370;2023-06-22T11:51:24;18.06;44.10
74537;SHT31;63013;51.104;-115.370;2023-06-22T11:53:51;18.05;44.10
74537;SHT31;63013;51.104;-115.370;2023-06-22T11:56:19;18.05;44.10
74537;SHT31;63013;51.104;-115.370;2023-06-22T11:58:46;18.05;44.05
74537;SHT31;63013;51.104;-115.370;2023-06-22T12:01:13;18.04;44.02
74537;SHT31;63013;51.104;-115.370;2023-06-22T12:03:41;18.03;44.00
74537;SHT31;63013;51.104;-115.370;2023-06-22T12:06:11;18.02;43.99
74537;SHT31;63013;51.104;-115.370;2023-06-22T12:08:38;18.02;43.99
74537;SHT31;63013;51.104;-115.370;2023-06-22T12:11:05;18.00;43.93
74537;SHT31;63013;51.104;-115.370;2023-06-22T12:13:32;18.00;43.90
74537;SHT31;63013;51.104;-115.370;2023-06-22T12:15:59;17.99;43.83
74537;SHT31;63013;51.104;-115.370;2023-06-22T12:18:26;17.97;43.90
74537;SHT31;63013;51.104;-115.370;2023-06-22T12:20:53;17.96;44.13
74537;SHT31;63013;51.104;-115.370;2023-06-22T12:23:19;17.96;44.36
74537;SHT31;63013;51.104;-115.370;2023-06-22T12:25:46;17.97;44.40
74537;SHT31;63013;51.104;-115.370;2023-06-22T12:28:13;17.95;44.40
74537;SHT31;63013;51.104;-115.370;2023-06-22T12:30:40;17.95;44.39
74537;SHT31;63013;51.104;-115.370;2023-06-22T12:33:07;17.95;44.31
74537;SHT31;63013;51.104;-115.370;2023-06-22T12:35:34;17.95;44.30
74537;SHT31;63013;51.104;-115.370;2023-06-22T12:38:02;17.95;44.29
74537;SHT31;63013;51.104;-115.370;2023-06-22T12:40:32;17.94;44.25
74537;SHT31;63013;51.104;-115.370;2023-06-22T12:42:59;17.94;44.21
74537;SHT31;63013;51.104;-115.370;2023-06-22T12:45:27;17.93;44.21
74537;SHT31;63013;51.104;-115.370;2023-06-22T12:47:57;17.93;44.20
74537;SHT31;63013;51.104;-115.370;2023-06-22T12:50:24;17.92;44.19
74537;SHT31;63013;51.104;-115.370;2023-06-22T12:52:52;17.92;44.18
74537;SHT31;63013;51.104;-115.370;2023-06-22T12:55:19;17.91;44.18
74537;SHT31;63013;51.104;-115.370;2023-06-22T12:57:46;17.90;44.19
74537;SHT31;63013;51.104;-115.370;2023-06-22T13:00:13;17.88;44.15
74537;SHT31;63013;51.104;-115.370;2023-06-22T13:02:40;17.88;44.15
74537;SHT31;63013;51.104;-115.370;2023-06-22T13:05:07;17.87;44.30
74537;SHT31;63013;51.104;-115.370;2023-06-22T13:07:35;17.86;44.55
74537;SHT31;63013;51.104;-115.370;2023-06-22T13:10:02;17.87;44.56
74537;SHT31;63013;51.104;-115.370;2023-06-22T13:12:29;17.87;44.58
74537;SHT31;63013;51.104;-115.370;2023-06-22T13:14:56;17.87;44.52
74537;SHT31;63013;51.104;-115.370;2023-06-22T13:17:23;17.86;44.51
74537;SHT31;63013;51.104;-115.370;2023-06-22T13:19:50;17.87;44.50
74537;SHT31;63013;51.104;-115.370;2023-06-22T13:22:30;17.86;44.49
74537;SHT31;63013;51.104;-115.370;2023-06-22T13:25:05;17.86;44.48
74537;SHT31;63013;51.104;-115.370;2023-06-22T13:27:35;17.86;44.47
74537;SHT31;63013;51.104;-115.370;2023-06-22T13:30:02;17.85;44.47
74537;SHT31;63013;51.104;-115.370;2023-06-22T13:32:29;17.84;44.49
74537;SHT31;63013;51.104;-115.370;2023-06-22T13:34:56;17.84;44.50
74537;SHT31;63013;51.104;-115.370;2023-06-22T13:37:23;17.85;44.52
74537;SHT31;63013;51.104;-115.370;2023-06-22T13:39:51;17.85;44.59
74537;SHT31;63013;51.104;-115.370;2023-06-22T13:42:21;17.85;44.59
74537;SHT31;63013;51.104;-115.370;2023-06-22T13:44:49;17.86;44.60
74537;SHT31;63013;51.104;-115.370;2023-06-22T13:47:16;17.86;44.62
74537;SHT31;63013;51.104;-115.370;2023-06-22T13:49:43;17.86;44.60
74537;SHT31;63013;51.104;-115.370;2023-06-22T13:52:11;17.86;44.60
74537;SHT31;63013;51.104;-115.370;2023-06-22T13:54:38;17.85;44.60
74537;SHT31;63013;51.104;-115.370;2023-06-22T13:57:05;17.87;44.67
74537;SHT31;63013;51.104;-115.370;2023-06-22T13:59:32;17.86;44.88
74537;SHT31;63013;51.104;-115.370;2023-06-22T14:02:00;17.87;45.20
74537;SHT31;63013;51.104;-115.370;2023-06-22T14:04:27;17.89;45.38
74537;SHT31;63013;51.104;-115.370;2023-06-22T14:06:54;17.91;45.40
74537;SHT31;63013;51.104;-115.370;2023-06-22T14:09:21;17.92;45.37
74537;SHT31;63013;51.104;-115.370;2023-06-22T14:11:48;17.92;45.31
74537;SHT31;63013;51.104;-115.370;2023-06-22T14:14:15;17.93;45.28
74537;SHT31;63013;51.104;-115.370;2023-06-22T14:16:42;17.94;45.31
74537;SHT31;63013;51.104;-115.370;2023-06-22T14:19:10;17.95;45.24
74537;SHT31;63013;51.104;-115.370;2023-06-22T14:21:37;17.95;45.19
74537;SHT31;63013;51.104;-115.370;2023-06-22T14:24:04;17.96;45.16
74537;SHT31;63013;51.104;-115.370;2023-06-22T14:26:31;17.97;45.17
74537;SHT31;63013;51.104;-115.370;2023-06-22T14:28:58;17.98;45.11
74537;SHT31;63013;51.104;-115.370;2023-06-22T14:31:25;17.97;45.14
74537;SHT31;63013;51.104;-115.370;2023-06-22T14:33:52;17.98;45.16
74537;SHT31;63013;51.104;-115.370;2023-06-22T14:36:18;17.99;45.12
74537;SHT31;63013;51.104;-115.370;2023-06-22T14:38:46;17.99;45.11
74537;SHT31;63013;51.104;-115.370;2023-06-22T14:41:13;17.98;45.11
74537;SHT31;63013;51.104;-115.370;2023-06-22T14:43:45;17.99;45.11
74537;SHT31;63013;51.104;-115.370;2023-06-22T14:46:19;17.99;45.09
74537;SHT31;63013;51.104;-115.370;2023-06-22T14:48:46;18.00;45.15
74537;SHT31;63013;51.104;-115.370;2023-06-22T14:51:14;18.00;45.10
74537;SHT31;63013;51.104;-115.370;2023-06-22T14:53:42;18.00;45.10
74537;SHT31;63013;51.104;-115.370;2023-06-22T14:56:10;18.00;45.11
74537;SHT31;63013;51.104;-115.370;2023-06-22T14:58:42;18.01;45.12
74537;SHT31;63013;51.104;-115.370;2023-06-22T15:01:13;18.00;45.10
74537;SHT31;63013;51.104;-115.370;2023-06-22T15:03:43;18.00;45.08